ロサンゼルス の空港の天気 - METARとTAF

ロサンゼルス国際空港 ( KLAX / LAX ) - アメリカ カリフォルニア州ロサンゼルス
飛行場実況気象(Metar)
観測時間08/17 19:53 PDT (08/18 02:53 UTC)
風向・風速西 5m/s
視程10km以上
天気現象
全天を覆う雲 雲底高度 300m
気温22.8℃
湿度81%
気圧1015.7hPa
METARKLAX 180253Z 26009KT 10SM OVC010 23/19 A3000 RMK AO2 SLP157 T02280194 53002
過去の天気等 Google飛行場航空写真 Wunderground天気予報

過去48時間のMETAR

飛行場予報(TAF)
発表時間: 8/17 20:05 PDT (8/18 03:05 UTC)
予報対象時間: 17日20時 PDT ~ 18日23時 PDT
風向・風速西南西 4m/s
視程10km以上
全天を覆う雲 雲底高度 300m
18日4時 PDT から
風向・風速西 4m/s
視程10km以上
天気現象煙霧
全天を覆う雲 雲底高度 460m
18日12時 PDT から
風向・風速西 6m/s
視程10km以上
全天の4割程度の雲 雲底高度 460m
18日21時 PDT から
風向・風速西 3m/s
視程10km以上
全天の4割程度の雲 雲底高度 300m
KLAX 180305Z 1803/1906 25007KT P6SM OVC010
FM181100 26008KT 6SM HZ OVC015
FM181900 26011KT P6SM SCT015
FM190400 26006KT P6SM SCT010